< < Back
Terminal Aerodrome Forecast


Current Version              Previous Versions:   1  2  3  4  5  6  7  8  9  

Terminal Aerodrome Forecast

440
FTUS42 KTAE 261700
TAFABY
TAF
KABY 261720Z 2618/2718 29010KT P6SM SKC
     FM262200 26005KT P6SM SKC=



Latest METAR

124
SAUS70 KWBC 262100 RRC
MTRABY
METAR KABY 262053Z 31011G19KT 10SM CLR 16/M04 A3016 RMK AO2 SLP212
T01561039 55005 $


USA.gov is the U.S. government's official web portal to all federal, state and local government web resources and services.